createdAt,value
2022-08-26T00:01:29.913Z,16.96
2022-08-26T00:03:59.234Z,16.87
2022-08-26T00:06:28.597Z,16.86
2022-08-26T00:08:57.059Z,16.87
2022-08-26T00:11:26.993Z,16.87
2022-08-26T00:13:56.127Z,16.86
2022-08-26T00:16:28.567Z,16.85
2022-08-26T00:18:57.423Z,16.88
2022-08-26T00:21:26.753Z,16.88
2022-08-26T00:23:55.909Z,16.86
2022-08-26T00:26:24.925Z,16.88
2022-08-26T00:28:57.927Z,16.81
2022-08-26T00:31:28.177Z,16.81
2022-08-26T00:34:00.369Z,16.83
2022-08-26T00:36:29.734Z,17.00
2022-08-26T00:38:58.839Z,16.91
2022-08-26T00:41:27.751Z,16.87
2022-08-26T00:43:56.385Z,16.87
2022-08-26T00:46:31.744Z,16.88
2022-08-26T00:49:11.915Z,16.86
2022-08-26T00:51:48.257Z,16.85
2022-08-26T00:54:18.933Z,16.85
2022-08-26T00:56:54.285Z,16.78
2022-08-26T00:59:26.783Z,16.75
2022-08-26T01:01:58.271Z,16.57
2022-08-26T01:04:31.742Z,16.49
2022-08-26T01:07:01.658Z,16.43
2022-08-26T01:09:32.686Z,16.48
2022-08-26T01:12:04.355Z,16.36
2022-08-26T01:14:36.757Z,16.25
2022-08-26T01:17:09.185Z,16.24
2022-08-26T01:19:44.785Z,16.12
2022-08-26T01:22:18.755Z,16.05
2022-08-26T01:24:49.888Z,15.97
2022-08-26T01:27:22.290Z,15.94
2022-08-26T01:29:53.137Z,15.91
2022-08-26T01:32:25.113Z,15.83
2022-08-26T01:34:54.399Z,15.88
2022-08-26T01:37:25.764Z,15.74
2022-08-26T01:39:58.010Z,15.72
2022-08-26T01:42:28.723Z,15.71
2022-08-26T01:45:02.519Z,15.74
2022-08-26T01:47:35.003Z,15.80
2022-08-26T01:50:07.190Z,15.82
2022-08-26T01:52:39.706Z,15.84
2022-08-26T01:55:11.688Z,15.86
2022-08-26T01:57:41.886Z,15.89
2022-08-26T02:00:14.916Z,15.94
2022-08-26T02:02:49.316Z,15.99
2022-08-26T02:05:21.784Z,16.02
2022-08-26T02:07:51.094Z,16.10
2022-08-26T02:10:21.243Z,16.20
2022-08-26T02:12:50.249Z,16.22
2022-08-26T02:15:19.288Z,16.21
2022-08-26T02:17:53.383Z,16.21
2022-08-26T02:20:26.446Z,16.24
2022-08-26T02:22:55.435Z,16.22
2022-08-26T02:25:30.233Z,16.19
2022-08-26T02:27:58.684Z,16.15
2022-08-26T02:30:29.925Z,16.13
2022-08-26T02:33:01.677Z,16.07
2022-08-26T02:35:31.257Z,15.97
2022-08-26T02:38:02.666Z,15.87
2022-08-26T02:40:44.014Z,15.84
2022-08-26T02:43:14.247Z,15.74
2022-08-26T02:45:43.151Z,15.68
2022-08-26T02:48:15.525Z,15.54
2022-08-26T02:50:44.158Z,15.50
2022-08-26T02:53:13.636Z,15.52
2022-08-26T02:55:44.476Z,15.55
2022-08-26T02:58:13.035Z,15.57
2022-08-26T03:00:53.280Z,15.63
2022-08-26T03:03:23.725Z,15.68
2022-08-26T03:05:52.495Z,15.72
2022-08-26T03:08:22.556Z,15.72
2022-08-26T03:10:53.353Z,15.76
2022-08-26T03:13:21.793Z,15.76
2022-08-26T03:15:50.810Z,15.76
2022-08-26T03:18:19.471Z,15.76
2022-08-26T03:20:49.483Z,15.86
2022-08-26T03:23:18.587Z,15.80
2022-08-26T03:25:52.703Z,15.78
2022-08-26T03:28:23.163Z,15.77
2022-08-26T03:30:54.909Z,15.74
2022-08-26T03:33:23.552Z,15.80
2022-08-26T03:35:52.747Z,15.82
2022-08-26T03:38:21.980Z,15.85
2022-08-26T03:40:52.757Z,15.82
2022-08-26T03:43:22.554Z,15.73
2022-08-26T03:45:51.371Z,15.62
2022-08-26T03:48:21.036Z,15.58
2022-08-26T03:50:49.392Z,15.46
2022-08-26T03:53:20.530Z,15.45
2022-08-26T03:55:49.255Z,15.31
2022-08-26T03:58:24.489Z,15.19
2022-08-26T04:00:55.596Z,15.17
2022-08-26T04:03:38.401Z,15.21
2022-08-26T04:06:07.758Z,15.21
2022-08-26T04:08:36.908Z,15.15
2022-08-26T04:11:07.664Z,15.19
2022-08-26T04:13:37.703Z,15.11
2022-08-26T04:16:33.094Z,15.08
2022-08-26T04:19:02.528Z,15.00
2022-08-26T04:21:31.085Z,14.98
2022-08-26T04:23:59.583Z,15.06
2022-08-26T04:26:39.392Z,14.88
2022-08-26T04:29:15.356Z,14.89
2022-08-26T04:31:44.176Z,14.83
2022-08-26T04:34:14.213Z,14.71
2022-08-26T04:36:44.511Z,14.74
2022-08-26T04:39:18.666Z,14.72
2022-08-26T04:41:50.419Z,14.77
2022-08-26T04:44:21.503Z,14.87
2022-08-26T04:46:50.005Z,14.71
2022-08-26T04:49:18.665Z,14.58
2022-08-26T04:51:47.412Z,14.51
2022-08-26T04:54:16.538Z,14.52
2022-08-26T04:56:47.543Z,14.45
2022-08-26T04:59:18.414Z,14.39
2022-08-26T05:01:51.551Z,14.40
2022-08-26T05:04:22.306Z,14.36
2022-08-26T05:06:52.152Z,14.35
2022-08-26T05:09:21.484Z,14.32
2022-08-26T05:11:52.217Z,14.37
2022-08-26T05:14:23.448Z,14.34
2022-08-26T05:16:54.135Z,14.34
2022-08-26T05:19:22.949Z,14.31
2022-08-26T05:21:51.966Z,14.23
2022-08-26T05:24:20.531Z,14.21
2022-08-26T05:26:49.986Z,14.17
2022-08-26T05:29:18.999Z,14.21
2022-08-26T05:31:48.647Z,14.18
2022-08-26T05:34:21.009Z,14.19
2022-08-26T05:36:49.628Z,14.21
2022-08-26T05:39:18.231Z,14.22
2022-08-26T05:41:47.116Z,14.26
2022-08-26T05:44:18.930Z,14.25
2022-08-26T05:46:47.958Z,14.23
2022-08-26T05:49:22.491Z,14.20
2022-08-26T05:51:54.641Z,14.30
2022-08-26T05:54:23.199Z,14.31
2022-08-26T05:56:52.696Z,14.30
2022-08-26T05:59:24.584Z,14.34
2022-08-26T06:01:55.106Z,14.25
2022-08-26T06:04:26.973Z,14.26
2022-08-26T06:06:57.692Z,14.27
2022-08-26T06:09:27.061Z,14.27
2022-08-26T06:11:56.209Z,14.27
2022-08-26T06:14:26.445Z,14.24
2022-08-26T06:16:55.714Z,14.20
2022-08-26T06:19:26.083Z,14.20
2022-08-26T06:22:23.474Z,14.18
2022-08-26T06:25:09.912Z,14.15
2022-08-26T06:27:38.430Z,14.09
2022-08-26T06:30:11.260Z,14.07
2022-08-26T06:32:41.126Z,14.16
2022-08-26T06:35:11.967Z,14.13
2022-08-26T06:37:43.041Z,14.21
2022-08-26T06:40:24.259Z,14.24
2022-08-26T06:42:54.151Z,14.16
2022-08-26T06:45:22.652Z,14.13
2022-08-26T06:47:52.061Z,14.04
2022-08-26T06:50:23.005Z,14.06
2022-08-26T06:52:52.857Z,14.12
2022-08-26T06:55:22.951Z,14.17
2022-08-26T06:57:56.533Z,14.03
2022-08-26T07:00:25.363Z,13.99
2022-08-26T07:02:54.530Z,14.08
2022-08-26T07:05:25.809Z,14.16
2022-08-26T07:07:54.729Z,14.05
2022-08-26T07:10:23.336Z,14.02
2022-08-26T07:12:51.989Z,14.02
2022-08-26T07:15:27.121Z,14.09
2022-08-26T07:18:06.377Z,14.11
2022-08-26T07:20:42.359Z,14.03
2022-08-26T07:23:12.132Z,14.06
2022-08-26T07:25:41.447Z,13.99
2022-08-26T07:28:11.295Z,14.03
2022-08-26T07:30:41.429Z,14.07
2022-08-26T07:33:10.951Z,14.14
2022-08-26T07:35:42.253Z,14.12
2022-08-26T07:38:10.742Z,14.09
2022-08-26T07:40:39.724Z,14.09
2022-08-26T07:43:08.385Z,14.12
2022-08-26T07:45:37.125Z,14.13
2022-08-26T07:48:06.078Z,14.16
2022-08-26T07:50:49.268Z,14.22
2022-08-26T07:53:20.349Z,14.03
2022-08-26T07:55:49.641Z,14.06
2022-08-26T07:58:19.763Z,14.01
2022-08-26T08:00:48.764Z,13.97
2022-08-26T08:03:17.248Z,14.01
2022-08-26T08:05:46.461Z,14.01
2022-08-26T08:08:27.368Z,14.05
2022-08-26T08:11:00.018Z,14.04
2022-08-26T08:13:30.863Z,14.12
2022-08-26T08:16:00.761Z,14.11
2022-08-26T08:18:30.113Z,14.12
2022-08-26T08:21:21.432Z,14.18
2022-08-26T08:23:52.321Z,14.35
2022-08-26T08:26:23.379Z,14.20
2022-08-26T08:28:52.690Z,14.21
2022-08-26T08:31:52.028Z,14.20
2022-08-26T08:34:11.717Z,14.10
2022-08-26T08:36:40.320Z,14.15
2022-08-26T08:39:10.167Z,14.05
2022-08-26T08:41:55.058Z,14.20
2022-08-26T08:46:59.870Z,14.19
2022-08-26T08:49:37.279Z,14.20
2022-08-26T08:52:12.305Z,14.17
2022-08-26T08:54:42.123Z,14.17
2022-08-26T08:57:24.831Z,14.32
2022-08-26T09:00:01.580Z,14.35
2022-08-26T09:02:42.489Z,14.40
2022-08-26T09:05:18.424Z,14.54
2022-08-26T09:07:51.827Z,14.60
2022-08-26T09:10:34.101Z,14.66
2022-08-26T09:13:09.962Z,14.77
2022-08-26T09:15:56.656Z,14.78
2022-08-26T09:18:42.264Z,14.97
2022-08-26T09:21:17.797Z,14.93
2022-08-26T09:23:49.712Z,14.97
2022-08-26T09:26:21.441Z,15.01
2022-08-26T09:28:59.066Z,15.17
2022-08-26T09:31:31.222Z,15.39
2022-08-26T09:34:17.365Z,15.34
2022-08-26T09:36:48.996Z,15.30
2022-08-26T09:39:32.064Z,15.24
2022-08-26T09:42:08.403Z,15.14
2022-08-26T09:44:58.121Z,15.08
2022-08-26T09:47:36.571Z,15.11
2022-08-26T09:50:13.034Z,15.17
2022-08-26T09:52:42.859Z,15.15
2022-08-26T09:55:16.819Z,15.18
2022-08-26T09:57:51.119Z,15.10
2022-08-26T10:00:32.988Z,15.17
2022-08-26T10:03:05.013Z,15.18
2022-08-26T10:05:40.583Z,15.21
2022-08-26T10:08:23.243Z,15.30
2022-08-26T10:10:53.067Z,15.44
2022-08-26T10:13:31.459Z,15.33
2022-08-26T10:16:18.169Z,15.38
2022-08-26T10:19:03.086Z,15.30
2022-08-26T10:21:39.229Z,15.48
2022-08-26T10:24:11.750Z,15.35
2022-08-26T10:26:49.059Z,15.32
2022-08-26T10:29:23.090Z,15.37
2022-08-26T10:32:02.666Z,15.47
2022-08-26T10:34:34.158Z,15.55
2022-08-26T10:37:14.965Z,15.68
2022-08-26T10:39:55.258Z,15.78
2022-08-26T10:42:37.637Z,15.84
2022-08-26T10:45:11.738Z,15.71
2022-08-26T10:47:48.781Z,15.69
2022-08-26T10:50:18.280Z,15.62
2022-08-26T10:53:00.174Z,15.60
2022-08-26T10:55:37.822Z,15.58
2022-08-26T10:58:26.481Z,15.52
2022-08-26T11:01:23.208Z,15.64
2022-08-26T11:04:00.654Z,15.70
2022-08-26T11:06:33.804Z,15.73
2022-08-26T11:09:10.038Z,15.72
2022-08-26T11:11:49.201Z,15.64
2022-08-26T11:14:58.438Z,15.52
2022-08-26T11:18:00.099Z,15.69
2022-08-26T11:20:42.147Z,15.70
2022-08-26T11:23:50.804Z,16.27
2022-08-26T11:26:56.383Z,16.68
2022-08-26T11:29:59.415Z,16.87
2022-08-26T11:32:48.757Z,16.69
2022-08-26T11:35:50.659Z,16.34
2022-08-26T11:38:28.861Z,16.30
2022-08-26T11:41:11.270Z,16.34
2022-08-26T11:43:42.907Z,16.40
2022-08-26T11:46:13.466Z,16.83
2022-08-26T11:48:44.761Z,17.01
2022-08-26T11:51:24.122Z,16.70
2022-08-26T11:54:11.205Z,16.43
2022-08-26T11:56:42.664Z,16.41
2022-08-26T11:59:15.727Z,16.32
2022-08-26T12:01:47.752Z,16.31
2022-08-26T12:04:26.893Z,16.27
2022-08-26T12:07:05.870Z,16.34
2022-08-26T12:09:51.675Z,16.39
2022-08-26T12:12:25.900Z,16.44
2022-08-26T12:15:14.181Z,16.34
2022-08-26T12:17:44.543Z,16.55
2022-08-26T12:20:31.504Z,16.79
2022-08-26T12:23:03.149Z,16.95
2022-08-26T12:25:32.948Z,17.04
2022-08-26T12:28:07.484Z,17.06
2022-08-26T12:30:36.303Z,17.25
2022-08-26T12:33:22.482Z,17.29
2022-08-26T12:35:56.728Z,17.22
2022-08-26T12:38:28.661Z,17.08
2022-08-26T12:40:58.514Z,17.02
2022-08-26T12:43:43.141Z,17.11
2022-08-26T12:46:15.501Z,17.36
2022-08-26T12:48:49.299Z,17.50
2022-08-26T12:51:24.719Z,17.36
2022-08-26T12:53:56.116Z,17.13
2022-08-26T12:56:36.946Z,16.92
2022-08-26T12:59:12.294Z,16.91
2022-08-26T13:01:45.686Z,16.70
2022-08-26T13:04:40.328Z,16.96
2022-08-26T13:07:26.545Z,17.28
2022-08-26T13:10:01.167Z,17.67
2022-08-26T13:12:33.574Z,18.02
2022-08-26T13:15:05.438Z,18.19
2022-08-26T13:17:36.286Z,18.07
2022-08-26T13:20:05.746Z,18.17
2022-08-26T13:22:35.003Z,18.32
2022-08-26T13:25:05.906Z,18.55
2022-08-26T13:27:34.226Z,18.91
2022-08-26T13:30:04.665Z,19.09
2022-08-26T13:32:33.325Z,19.34
2022-08-26T13:35:05.693Z,19.18
2022-08-26T13:37:35.631Z,19.12
2022-08-26T13:40:08.332Z,19.29
2022-08-26T13:42:37.013Z,19.22
2022-08-26T13:45:12.989Z,19.02
2022-08-26T13:47:41.319Z,19.08
2022-08-26T13:50:10.199Z,18.84
2022-08-26T13:52:38.539Z,18.77
2022-08-26T13:55:10.080Z,18.71
2022-08-26T13:57:38.951Z,18.64
2022-08-26T14:00:11.113Z,18.60
2022-08-26T14:02:39.577Z,18.61
2022-08-26T14:05:09.223Z,18.79
2022-08-26T14:07:37.844Z,18.70
2022-08-26T14:10:06.915Z,18.67
2022-08-26T14:12:36.997Z,18.62
2022-08-26T14:15:06.255Z,18.62
2022-08-26T14:17:41.065Z,18.64
2022-08-26T14:20:13.401Z,18.60
2022-08-26T14:23:03.397Z,18.52
2022-08-26T14:25:33.761Z,18.47
2022-08-26T14:28:05.135Z,18.52
2022-08-26T14:30:33.749Z,18.33
2022-08-26T14:33:03.343Z,18.34
2022-08-26T14:35:32.853Z,18.35
2022-08-26T14:38:03.649Z,18.31
2022-08-26T14:40:37.869Z,18.28
2022-08-26T14:43:18.902Z,18.17
2022-08-26T14:45:49.281Z,18.12
2022-08-26T14:48:17.733Z,18.08
2022-08-26T14:50:46.637Z,18.15
2022-08-26T14:53:33.727Z,18.07
2022-08-26T14:56:09.738Z,18.11
2022-08-26T14:58:44.394Z,18.03
2022-08-26T15:01:15.471Z,18.07
2022-08-26T15:03:49.044Z,18.09
2022-08-26T15:06:25.064Z,18.23
2022-08-26T15:08:53.745Z,18.14
2022-08-26T15:11:24.745Z,18.17
2022-08-26T15:13:56.257Z,18.36
2022-08-26T15:16:25.579Z,18.42
2022-08-26T15:18:55.611Z,18.57
2022-08-26T15:21:25.737Z,18.77
2022-08-26T15:23:56.444Z,19.16
2022-08-26T15:26:25.695Z,19.28
2022-08-26T15:28:56.112Z,19.65
2022-08-26T15:31:31.489Z,19.94
2022-08-26T15:34:03.373Z,20.08
2022-08-26T15:36:33.187Z,20.35
2022-08-26T15:39:02.742Z,20.37
2022-08-26T15:41:31.355Z,20.23
2022-08-26T15:44:05.986Z,20.07
2022-08-26T15:46:35.049Z,19.97
2022-08-26T15:49:06.412Z,20.19
2022-08-26T15:51:45.520Z,20.58
2022-08-26T15:54:16.132Z,20.86
2022-08-26T15:56:47.404Z,21.40
2022-08-26T15:59:19.287Z,21.62
2022-08-26T16:01:48.728Z,21.39
2022-08-26T16:04:19.327Z,21.30
2022-08-26T16:06:52.445Z,23.43
2022-08-26T16:09:27.229Z,21.99
2022-08-26T16:11:56.343Z,22.19
2022-08-26T16:14:27.840Z,26.08
2022-08-26T16:16:57.958Z,24.63
2022-08-26T16:19:26.928Z,23.65
2022-08-26T16:21:55.747Z,24.83
2022-08-26T16:24:29.751Z,25.10
2022-08-26T16:26:58.883Z,24.19
2022-08-26T16:29:28.930Z,25.16
2022-08-26T16:31:57.416Z,23.27
2022-08-26T16:34:27.242Z,22.19
2022-08-26T16:36:55.886Z,21.41
2022-08-26T16:39:26.836Z,20.95
2022-08-26T16:41:57.384Z,20.78
2022-08-26T16:44:28.063Z,20.69
2022-08-26T16:47:00.966Z,20.99
2022-08-26T16:49:29.864Z,24.03
2022-08-26T16:51:58.493Z,22.11
2022-08-26T16:54:27.049Z,21.25
2022-08-26T16:56:55.804Z,20.76
2022-08-26T16:59:24.314Z,20.43
2022-08-26T17:01:52.939Z,20.09
2022-08-26T17:04:24.446Z,19.88
2022-08-26T17:06:53.105Z,19.77
2022-08-26T17:09:22.026Z,19.59
2022-08-26T17:11:51.295Z,19.30
2022-08-26T17:14:21.113Z,19.28
2022-08-26T17:16:51.492Z,19.20
2022-08-26T17:19:21.336Z,19.03
2022-08-26T17:21:53.012Z,19.05
2022-08-26T17:24:21.820Z,19.00
2022-08-26T17:26:55.600Z,19.04
2022-08-26T17:29:26.352Z,19.07
2022-08-26T17:31:56.933Z,18.93
2022-08-26T17:34:25.858Z,18.85
2022-08-26T17:36:55.933Z,18.89
2022-08-26T17:39:24.613Z,19.00
2022-08-26T17:42:32.104Z,19.07
2022-08-26T21:53:08.451Z,14.61
2022-08-26T21:55:38.783Z,14.52
2022-08-26T21:58:07.535Z,14.41
2022-08-26T22:00:36.477Z,14.42
2022-08-26T22:03:16.937Z,14.42
2022-08-26T22:05:46.708Z,14.37
2022-08-26T22:08:15.807Z,14.34
2022-08-26T22:10:45.792Z,14.35
2022-08-26T22:13:15.268Z,14.37
2022-08-26T22:15:44.031Z,14.24
2022-08-26T22:18:12.552Z,14.24
2022-08-26T22:20:41.237Z,14.21
2022-08-26T22:23:10.658Z,14.18
2022-08-26T22:25:40.414Z,14.21
2022-08-26T22:28:10.480Z,14.15
2022-08-26T22:30:40.157Z,14.09
2022-08-26T22:33:08.542Z,14.08
2022-08-26T22:35:40.736Z,14.09
2022-08-26T22:38:10.489Z,14.06
2022-08-26T22:40:39.938Z,14.04
2022-08-26T22:43:10.055Z,14.13
2022-08-26T22:45:43.841Z,14.01
2022-08-26T22:48:15.686Z,13.83
2022-08-26T22:50:44.770Z,13.76
2022-08-26T22:53:13.772Z,13.75
2022-08-26T22:55:43.423Z,13.72
2022-08-26T22:58:15.767Z,13.70
2022-08-26T23:00:49.358Z,13.68
2022-08-26T23:03:20.032Z,13.79
2022-08-26T23:05:48.790Z,13.78
2022-08-26T23:08:20.164Z,13.65
2022-08-26T23:10:49.190Z,13.73
2022-08-26T23:13:20.263Z,13.75
2022-08-26T23:15:48.706Z,13.76
2022-08-26T23:18:17.478Z,13.77
2022-08-26T23:20:47.015Z,13.77
2022-08-26T23:23:15.576Z,13.78
2022-08-26T23:25:44.309Z,13.78
2022-08-26T23:28:13.414Z,13.76
2022-08-26T23:30:43.747Z,13.77
2022-08-26T23:33:12.279Z,13.69
2022-08-26T23:35:40.601Z,13.60
2022-08-26T23:38:11.796Z,13.60
2022-08-26T23:40:42.564Z,13.53
2022-08-26T23:43:12.780Z,13.48
2022-08-26T23:45:42.981Z,13.32
2022-08-26T23:48:11.687Z,13.26
2022-08-26T23:50:58.554Z,13.12
2022-08-26T23:53:27.203Z,12.97
2022-08-26T23:55:55.674Z,12.91
2022-08-26T23:58:24.363Z,12.95
